^^
Station Historical Data
 
Daily Summary for November 22, 2017 Units:  Metric    English   Both
« Previous Day
Next Day »
Daily Weekly Monthly Yearly Custom
  Current: High: Low: Average:
Temperature: 10.5 °C 13.1 °C 10.5 °C 11.6 °C
Dew Point: 6.4 °C 10.4 °C 6.4 °C 9.5 °C
Humidity: 76% 96% 76% 87%
Wind Speed: 22.2km/h 38.9km/h 9.3km/h 21.7km/h
Wind Gust: 22.2km/h 38.9km/h - -
WindSSE - - South
Pressure: 997.9 hPa 1004.6 hPa 997.9 hPa -
Precipitation: 3.6 mm      
Historical Graphs
 
 
Tabular Data for November 22, 2017
Time Temperature Dew Point Pressure Wind Wind Speed Wind Gust Humidity Rainfall Rate (Hourly) solar Conditions
00:03 11.9 °C 10.4 °C 1004.6 hPa West 18.3 km/h 18.3 km/h 91% 0.0 mm 0.0 W/m2 RA
00:08 11.9 °C 10.4 °C 1004.6 hPa South 9.3 km/h 9.3 km/h 91% 0.0 mm 0.0 W/m2 RA
00:13 11.9 °C 10.4 °C 1004.6 hPa South 18.5 km/h 18.5 km/h 91% 0.0 mm 0.0 W/m2 OVC
00:18 11.9 °C 10.3 °C 1004.6 hPa SE 16.7 km/h 16.7 km/h 90% 0.0 mm 0.0 W/m2 OVC
00:24 11.9 °C 10.3 °C 1004.6 hPa SSW 11.7 km/h 11.7 km/h 90% 0.0 mm 0.0 W/m2 OVC
00:29 11.9 °C 10.3 °C 1004.6 hPa SE 25.9 km/h 25.9 km/h 90% 0.0 mm 0.0 W/m2 OVC
00:34 12.0 °C 10.4 °C 1004.6 hPa SSW 15.1 km/h 15.1 km/h 90% 0.0 mm 0.0 W/m2 OVC
00:39 11.9 °C 10.3 °C 1004.6 hPa South 18.5 km/h 18.5 km/h 90% 0.0 mm 0.0 W/m2 -RA
00:44 11.9 °C 10.3 °C 1004.6 hPa SSE 14.8 km/h 14.8 km/h 90% 0.0 mm 0.0 W/m2 -RA
00:54 11.7 °C 10.2 °C 1004.6 hPa SW 15.1 km/h 15.1 km/h 91% 0.5 mm 0.0 W/m2 -RA
00:59 11.5 °C 10.2 °C 1004.6 hPa SSW 22.2 km/h 22.2 km/h 92% 0.5 mm 0.0 W/m2 -RA
01:04 11.3 °C 10.2 °C 1004.6 hPa South 11.7 km/h 11.7 km/h 93% 0.8 mm 0.0 W/m2 -RA
01:09 11.3 °C 10.2 °C 1004.3 hPa SSE 20.4 km/h 20.4 km/h 93% 0.8 mm 0.0 W/m2 -RA
01:20 11.1 °C 10.2 °C 1004.3 hPa South 20.4 km/h 20.4 km/h 94% 1.3 mm 0.0 W/m2 -RA
01:25 11.0 °C 10.1 °C 1004.3 hPa South 21.7 km/h 21.7 km/h 94% 1.5 mm 0.0 W/m2 -RA
01:30 11.0 °C 10.1 °C 1004.3 hPa South 22.2 km/h 22.2 km/h 94% 1.5 mm 0.0 W/m2 -RA
01:40 10.9 °C 10.0 °C 1004.3 hPa SE 20.4 km/h 20.4 km/h 94% 1.5 mm 0.0 W/m2 -RA
01:45 10.9 °C 9.9 °C 1004.3 hPa South 20.1 km/h 20.1 km/h 94% 1.8 mm 0.0 W/m2 -RA
01:50 10.8 °C 9.9 °C 1003.9 hPa South 16.7 km/h 16.7 km/h 94% 1.5 mm 0.0 W/m2 -RA
01:55 10.8 °C 10.0 °C 1003.9 hPa South 25.9 km/h 25.9 km/h 95% 1.5 mm 0.0 W/m2 -RA
02:05 10.7 °C 9.9 °C 1003.9 hPa SSW 21.7 km/h 21.7 km/h 95% 1.5 mm 0.0 W/m2 -RA
02:16 10.7 °C 9.9 °C 1003.6 hPa South 16.7 km/h 16.7 km/h 95% 1.8 mm 0.0 W/m2 -RA
02:26 10.7 °C 9.9 °C 1003.6 hPa WSW 22.2 km/h 22.2 km/h 95% 1.5 mm 0.0 W/m2 -RA
02:29 10.7 °C 9.9 °C 1003.6 hPa SSW 28.5 km/h 28.5 km/h 95% 1.5 mm 0.0 W/m2 -RA
02:34 10.7 °C 9.9 °C 1003.6 hPa South 13.4 km/h 13.4 km/h 95% 1.5 mm 0.0 W/m2 -RA
02:39 10.7 °C 9.9 °C 1003.6 hPa South 18.0 km/h 18.0 km/h 95% 1.5 mm 0.0 W/m2 -RA
02:44 10.7 °C 9.9 °C 1003.6 hPa SSW 22.2 km/h 22.2 km/h 95% 1.3 mm 0.0 W/m2 -RA
02:49 10.7 °C 9.9 °C 1003.6 hPa SSE 18.3 km/h 18.3 km/h 95% 1.3 mm 0.0 W/m2 -RA
02:59 10.7 °C 9.9 °C 1003.6 hPa WSW 25.9 km/h 25.9 km/h 95% 1.0 mm 0.0 W/m2 -RA
03:04 10.7 °C 10.1 °C 1003.6 hPa South 13.4 km/h 13.4 km/h 96% 0.8 mm 0.0 W/m2 -RA
03:10 10.7 °C 10.1 °C 1003.6 hPa SSE 38.9 km/h 38.9 km/h 96% 0.5 mm 0.0 W/m2 -RA
03:15 10.7 °C 10.1 °C 1003.6 hPa WSW 18.5 km/h 18.5 km/h 96% 0.5 mm 0.0 W/m2 -RA
03:20 10.7 °C 10.1 °C 1003.6 hPa South 13.0 km/h 13.0 km/h 96% 0.5 mm 0.0 W/m2 -RA
03:25 10.7 °C 10.1 °C 1003.3 hPa SSW 20.4 km/h 20.4 km/h 96% 0.5 mm 0.0 W/m2 -RA
03:30 10.7 °C 10.1 °C 1003.3 hPa SSE 13.4 km/h 13.4 km/h 96% 0.3 mm 0.0 W/m2 -RA
03:35 10.7 °C 10.1 °C 1003.3 hPa SSE 18.5 km/h 18.5 km/h 96% 0.3 mm 0.0 W/m2 -RA
03:45 10.8 °C 10.0 °C 1002.9 hPa WNW 18.3 km/h 18.3 km/h 95% 0.3 mm 0.0 W/m2 -RA
03:50 10.8 °C 10.1 °C 1003.3 hPa SSW 20.1 km/h 20.1 km/h 95% 0.3 mm 0.0 W/m2 -RA
03:55 10.9 °C 10.1 °C 1002.9 hPa SSE 22.2 km/h 22.2 km/h 95% 0.3 mm 0.0 W/m2 -RA
04:00 10.9 °C 10.2 °C 1002.9 hPa SW 25.9 km/h 25.9 km/h 95% 0.0 mm 0.0 W/m2 -RA
04:05 10.9 °C 10.2 °C 1002.9 hPa WSW 9.3 km/h 9.3 km/h 95% 0.0 mm 0.0 W/m2 -RA
04:14 10.9 °C 10.2 °C 1002.9 hPa SSW 22.2 km/h 22.2 km/h 95% 0.0 mm 0.0 W/m2 -RA
04:19 11.0 °C 10.2 °C 1002.9 hPa WSW 22.2 km/h 22.2 km/h 95% 0.0 mm 0.0 W/m2 -RA
04:24 11.0 °C 10.2 °C 1002.9 hPa South 26.7 km/h 26.7 km/h 95% 0.0 mm 0.0 W/m2 -RA
04:29 11.1 °C 10.3 °C 1002.9 hPa South 13.4 km/h 13.4 km/h 95% 0.0 mm 0.0 W/m2 -RA
04:34 11.1 °C 10.2 °C 1002.9 hPa South 25.1 km/h 25.1 km/h 94% 0.0 mm 0.0 W/m2 -RA
04:39 11.1 °C 10.2 °C 1002.9 hPa South 20.1 km/h 20.1 km/h 94% 0.0 mm 0.0 W/m2 -RA
04:49 11.1 °C 10.2 °C 1002.9 hPa South 20.4 km/h 20.4 km/h 94% 0.0 mm 0.0 W/m2 -RA
04:54 11.2 °C 10.2 °C 1002.9 hPa South 20.4 km/h 20.4 km/h 94% 0.0 mm 0.0 W/m2 -RA
04:59 11.2 °C 10.1 °C 1002.9 hPa South 15.1 km/h 15.1 km/h 93% 0.0 mm 0.0 W/m2 -RA
05:05 11.2 °C 10.2 °C 1002.9 hPa South 18.3 km/h 18.3 km/h 94% 0.0 mm 0.0 W/m2 -RA
05:15 11.3 °C 10.2 °C 1002.9 hPa SW 20.1 km/h 20.1 km/h 93% 0.0 mm 0.0 W/m2 -RA
05:20 11.3 °C 10.2 °C 1002.9 hPa WSW 16.7 km/h 16.7 km/h 93% 0.0 mm 0.0 W/m2 -RA
05:34 11.4 °C 10.2 °C 1002.9 hPa SSE 21.7 km/h 21.7 km/h 92% 0.0 mm 0.0 W/m2 -RA
05:39 11.4 °C 10.2 °C 1002.9 hPa South 16.7 km/h 16.7 km/h 92% 0.0 mm 0.0 W/m2 OVC
05:49 11.3 °C 10.1 °C 1002.6 hPa SW 20.4 km/h 20.4 km/h 92% 0.0 mm 0.0 W/m2 OVC
05:54 11.2 °C 9.9 °C 1002.6 hPa South 18.5 km/h 18.5 km/h 92% 0.0 mm 0.0 W/m2 OVC
05:59 11.1 °C 10.0 °C 1002.6 hPa SSE 25.1 km/h 25.1 km/h 93% 0.0 mm 0.0 W/m2 OVC
06:05 11.0 °C 9.9 °C 1002.6 hPa SSW 16.7 km/h 16.7 km/h 93% 0.0 mm 0.0 W/m2 OVC
06:15 10.9 °C 9.9 °C 1002.6 hPa WNW 27.8 km/h 27.8 km/h 94% 0.0 mm 0.0 W/m2 OVC
06:20 10.9 °C 9.9 °C 1002.6 hPa SSE 25.9 km/h 25.9 km/h 94% 0.0 mm 0.0 W/m2 OVC
06:30 10.8 °C 9.9 °C 1002.6 hPa WNW 20.1 km/h 20.1 km/h 94% 0.3 mm 0.0 W/m2 RA
06:35 10.8 °C 9.9 °C 1002.6 hPa South 25.1 km/h 25.1 km/h 94% 0.3 mm 0.0 W/m2 RA
06:40 10.8 °C 9.9 °C 1002.6 hPa WSW 18.5 km/h 18.5 km/h 94% 0.5 mm 0.0 W/m2 RA
06:45 10.8 °C 10.1 °C 1002.3 hPa SSW 25.9 km/h 25.9 km/h 95% 0.5 mm 0.0 W/m2 RA
06:51 10.8 °C 10.1 °C 1002.6 hPa South 16.7 km/h 16.7 km/h 95% 0.5 mm 0.0 W/m2 OVC
06:56 10.8 °C 10.1 °C 1002.3 hPa South 18.5 km/h 18.5 km/h 95% 0.5 mm 0.0 W/m2 OVC
07:01 10.8 °C 10.1 °C 1002.3 hPa South 18.5 km/h 18.5 km/h 95% 0.5 mm 0.0 W/m2 OVC
07:06 10.9 °C 10.0 °C 1002.3 hPa South 13.4 km/h 13.4 km/h 94% 0.5 mm 0.0 W/m2 OVC
07:11 11.0 °C 10.1 °C 1002.3 hPa SW 33.3 km/h 33.3 km/h 94% 0.5 mm 0.0 W/m2 OVC
07:16 11.1 °C 10.1 °C 1002.3 hPa SSW 22.2 km/h 22.2 km/h 94% 0.5 mm 0.0 W/m2 OVC
07:21 11.1 °C 10.0 °C 1002.3 hPa WSW 29.6 km/h 29.6 km/h 93% 0.5 mm 0.0 W/m2 OVC
07:26 11.2 °C 10.1 °C 1002.6 hPa SSE 30.1 km/h 30.1 km/h 93% 0.5 mm 0.0 W/m2 OVC
07:36 11.3 °C 10.1 °C 1002.6 hPa SSW 28.5 km/h 28.5 km/h 92% 0.0 mm 0.0 W/m2 OVC
07:57 11.5 °C 10.1 °C 1002.6 hPa WNW 13.0 km/h 13.0 km/h 91% 0.0 mm 0.0 W/m2 OVC
08:02 11.5 °C 10.1 °C 1002.6 hPa SSE 25.9 km/h 25.9 km/h 91% 0.0 mm 0.0 W/m2 OVC
08:07 11.5 °C 10.1 °C 1002.6 hPa WSW 16.7 km/h 16.7 km/h 91% 0.0 mm 0.0 W/m2 OVC
08:12 11.5 °C 9.9 °C 1002.6 hPa SW 14.8 km/h 14.8 km/h 90% 0.0 mm 0.0 W/m2 OVC
08:17 11.6 °C 9.9 °C 1002.6 hPa SW 22.2 km/h 22.2 km/h 90% 0.0 mm 0.0 W/m2 OVC
08:22 11.5 °C 9.9 °C 1002.6 hPa South 20.1 km/h 20.1 km/h 90% 0.0 mm 0.0 W/m2 OVC
08:27 11.5 °C 9.9 °C 1002.6 hPa West 21.7 km/h 21.7 km/h 90% 0.0 mm 0.0 W/m2 OVC
08:32 11.6 °C 9.9 °C 1002.6 hPa SSW 20.4 km/h 20.4 km/h 90% 0.0 mm 0.0 W/m2 OVC
08:34 11.6 °C 9.9 °C 1002.6 hPa SSE 28.5 km/h 28.5 km/h 90% 0.0 mm 5.0 W/m2 OVC
08:40 11.6 °C 9.9 °C 1002.6 hPa SSE 15.1 km/h 15.1 km/h 90% 0.0 mm 7.0 W/m2 -RA
08:45 11.6 °C 9.9 °C 1002.9 hPa South 25.9 km/h 25.9 km/h 90% 0.0 mm 7.0 W/m2 -RA
08:50 11.6 °C 10.0 °C 1002.6 hPa SSW 18.5 km/h 18.5 km/h 90% 0.0 mm 14.0 W/m2 -RA
08:55 11.6 °C 10.0 °C 1002.9 hPa South 16.3 km/h 16.3 km/h 90% 0.0 mm 18.0 W/m2 -RA
09:00 11.6 °C 10.0 °C 1002.9 hPa South 25.9 km/h 25.9 km/h 90% 0.0 mm 21.0 W/m2 -RA
09:10 11.6 °C 9.8 °C 1002.9 hPa SSE 18.5 km/h 18.5 km/h 89% 0.0 mm 19.0 W/m2 -RA
09:15 11.6 °C 9.8 °C 1002.9 hPa SSW 25.1 km/h 25.1 km/h 89% 0.0 mm 21.0 W/m2 -RA
09:20 11.7 °C 9.9 °C 1002.9 hPa South 22.2 km/h 22.2 km/h 89% 0.0 mm 26.0 W/m2 -RA
09:25 11.6 °C 9.8 °C 1002.9 hPa SSW 25.9 km/h 25.9 km/h 89% 0.0 mm 35.0 W/m2 -RA
09:30 11.7 °C 9.9 °C 1002.9 hPa South 20.4 km/h 20.4 km/h 89% 0.0 mm 35.0 W/m2 -RA
09:35 11.7 °C 9.9 °C 1002.9 hPa SW 22.2 km/h 22.2 km/h 89% 0.0 mm 35.0 W/m2 -RA
09:46 11.7 °C 9.9 °C 1003.3 hPa SSE 22.2 km/h 22.2 km/h 89% 0.0 mm 37.0 W/m2 BKN
09:51 11.8 °C 10.0 °C 1003.3 hPa SSW 25.1 km/h 25.1 km/h 89% 0.0 mm 42.0 W/m2 BKN
09:56 11.8 °C 10.0 °C 1003.3 hPa West 25.9 km/h 25.9 km/h 89% 0.0 mm 49.0 W/m2 BKN
10:01 11.8 °C 10.0 °C 1003.3 hPa WSW 18.5 km/h 18.5 km/h 89% 0.0 mm 53.0 W/m2 BKN
10:06 11.8 °C 9.8 °C 1003.3 hPa SSW 18.5 km/h 18.5 km/h 88% 0.0 mm 62.0 W/m2 BKN
10:16 11.8 °C 10.0 °C 1003.3 hPa South 20.1 km/h 20.1 km/h 89% 0.0 mm 60.0 W/m2 BKN
10:22 11.8 °C 9.9 °C 1003.3 hPa South 31.9 km/h 31.9 km/h 88% 0.0 mm 79.0 W/m2 BKN
10:27 11.9 °C 9.9 °C 1003.3 hPa SSW 25.9 km/h 25.9 km/h 88% 0.0 mm 77.0 W/m2 BKN
10:32 11.9 °C 9.9 °C 1003.6 hPa South 28.5 km/h 28.5 km/h 88% 0.0 mm 74.0 W/m2 BKN
10:37 11.9 °C 10.0 °C 1003.6 hPa WSW 11.7 km/h 11.7 km/h 88% 0.0 mm 58.0 W/m2 BKN
10:43 11.9 °C 10.0 °C 1003.6 hPa South 18.5 km/h 18.5 km/h 88% 0.0 mm 63.0 W/m2 BKN
10:48 12.0 °C 10.1 °C 1003.6 hPa WSW 23.5 km/h 23.5 km/h 88% 0.0 mm 67.0 W/m2 BKN
10:53 12.0 °C 9.9 °C 1003.6 hPa South 29.6 km/h 29.6 km/h 87% 0.0 mm 65.0 W/m2 BKN
11:03 12.0 °C 9.9 °C 1003.6 hPa West 20.4 km/h 20.4 km/h 87% 0.0 mm 67.0 W/m2 BKN
11:08 12.0 °C 9.9 °C 1003.6 hPa SSE 16.7 km/h 16.7 km/h 87% 0.0 mm 76.0 W/m2 BKN
11:13 12.0 °C 9.9 °C 1003.6 hPa SSW 25.9 km/h 25.9 km/h 87% 0.0 mm 65.0 W/m2 BKN
11:18 12.0 °C 9.9 °C 1003.6 hPa South 22.2 km/h 22.2 km/h 87% 0.0 mm 60.0 W/m2 BKN
11:23 12.0 °C 9.9 °C 1003.6 hPa South 20.4 km/h 20.4 km/h 87% 0.0 mm 74.0 W/m2 BKN
11:28 12.0 °C 9.9 °C 1003.6 hPa SSE 25.9 km/h 25.9 km/h 87% 0.0 mm 79.0 W/m2 BKN
11:33 12.0 °C 9.9 °C 1003.6 hPa SSE 35.1 km/h 35.1 km/h 87% 0.0 mm 88.0 W/m2 BKN
11:38 12.0 °C 9.7 °C 1003.3 hPa South 25.9 km/h 25.9 km/h 86% 0.0 mm 77.0 W/m2 BKN
11:43 12.1 °C 9.8 °C 1003.3 hPa SSW 20.4 km/h 20.4 km/h 86% 0.0 mm 95.0 W/m2 BKN
11:54 12.0 °C 9.9 °C 1003.3 hPa South 16.7 km/h 16.7 km/h 87% 0.0 mm 97.0 W/m2 BKN
11:59 12.1 °C 9.9 °C 1003.3 hPa South 20.1 km/h 20.1 km/h 87% 0.0 mm 81.0 W/m2 BKN
12:04 12.1 °C 9.9 °C 1003.3 hPa South 15.1 km/h 15.1 km/h 87% 0.0 mm 77.0 W/m2 BKN
12:09 12.1 °C 9.9 °C 1003.3 hPa SSE 21.7 km/h 21.7 km/h 87% 0.0 mm 91.0 W/m2 BKN
12:19 12.1 °C 9.8 °C 1003.3 hPa SW 26.7 km/h 26.7 km/h 86% 0.0 mm 98.0 W/m2 BKN
12:24 12.1 °C 9.8 °C 1003.3 hPa WSW 31.9 km/h 31.9 km/h 86% 0.0 mm 72.0 W/m2 BKN
12:29 12.1 °C 9.8 °C 1003.3 hPa SE 24.1 km/h 24.1 km/h 86% 0.0 mm 69.0 W/m2 BKN
12:34 12.1 °C 9.8 °C 1003.3 hPa WSW 16.3 km/h 16.3 km/h 86% 0.0 mm 67.0 W/m2 BKN
12:39 12.1 °C 9.8 °C 1002.9 hPa SW 25.9 km/h 25.9 km/h 86% 0.0 mm 100.0 W/m2 FEW
12:44 12.1 °C 9.8 °C 1002.9 hPa South 25.9 km/h 25.9 km/h 86% 0.0 mm 190.0 W/m2 FEW
12:50 12.2 °C 9.9 °C 1002.9 hPa South 26.7 km/h 26.7 km/h 86% 0.0 mm 200.0 W/m2 FEW
12:55 12.3 °C 10.0 °C 1002.9 hPa SSW 25.9 km/h 25.9 km/h 86% 0.0 mm 276.0 W/m2 FEW
13:05 12.4 °C 10.0 °C 1002.6 hPa South 15.1 km/h 15.1 km/h 85% 0.0 mm 216.0 W/m2 FEW
13:10 12.6 °C 10.1 °C 1002.6 hPa WSW 15.1 km/h 15.1 km/h 85% 0.0 mm 193.0 W/m2 FEW
13:15 12.6 °C 10.1 °C 1002.6 hPa SSE 18.5 km/h 18.5 km/h 85% 0.0 mm 209.0 W/m2 FEW
13:20 12.5 °C 9.9 °C 1002.3 hPa SSE 18.5 km/h 18.5 km/h 84% 0.0 mm 176.0 W/m2 FEW
13:25 12.6 °C 10.1 °C 1002.3 hPa South 25.9 km/h 25.9 km/h 85% 0.0 mm 178.0 W/m2 FEW
13:30 12.6 °C 9.9 °C 1002.3 hPa South 28.5 km/h 28.5 km/h 84% 0.0 mm 200.0 W/m2 FEW
13:35 12.6 °C 10.0 °C 1002.3 hPa SSE 23.5 km/h 23.5 km/h 84% 0.0 mm 207.0 W/m2 FEW
13:40 12.6 °C 9.9 °C 1001.9 hPa SSW 18.5 km/h 18.5 km/h 84% 0.0 mm 190.0 W/m2 SCT
13:50 12.6 °C 10.0 °C 1001.9 hPa SSE 16.7 km/h 16.7 km/h 84% 0.0 mm 200.0 W/m2 SCT
13:55 12.7 °C 10.1 °C 1001.9 hPa SE 16.7 km/h 16.7 km/h 84% 0.0 mm 200.0 W/m2 SCT
14:01 12.7 °C 10.1 °C 1001.9 hPa South 24.1 km/h 24.1 km/h 84% 0.0 mm 195.0 W/m2 SCT
14:11 12.8 °C 10.2 °C 1001.6 hPa SSW 15.1 km/h 15.1 km/h 84% 0.0 mm 181.0 W/m2 SCT
14:21 12.9 °C 10.1 °C 1001.6 hPa SSE 25.9 km/h 25.9 km/h 83% 0.0 mm 167.0 W/m2 SCT
14:31 12.9 °C 9.9 °C 1001.6 hPa South 26.7 km/h 26.7 km/h 82% 0.0 mm 155.0 W/m2 SCT
14:36 12.9 °C 9.9 °C 1001.2 hPa South 37.0 km/h 37.0 km/h 82% 0.0 mm 144.0 W/m2 SCT
14:41 13.0 °C 10.0 °C 1001.2 hPa SSE 16.7 km/h 16.7 km/h 82% 0.0 mm 139.0 W/m2 OVC
14:43 13.0 °C 10.0 °C 1001.2 hPa SSW 13.4 km/h 13.4 km/h 82% 0.0 mm 137.0 W/m2 OVC
14:48 13.1 °C 9.9 °C 1001.2 hPa SE 22.2 km/h 22.2 km/h 81% 0.0 mm 125.0 W/m2 OVC
15:03 13.0 °C 9.6 °C 1001.2 hPa SE 23.5 km/h 23.5 km/h 80% 0.0 mm 86.0 W/m2 OVC
15:08 13.0 °C 9.6 °C 1001.2 hPa SSE 15.1 km/h 15.1 km/h 80% 0.0 mm 56.0 W/m2 OVC
15:14 13.0 °C 9.6 °C 1001.2 hPa SSE 23.5 km/h 23.5 km/h 80% 0.0 mm 60.0 W/m2 OVC
15:19 12.9 °C 9.6 °C 1001.2 hPa South 20.4 km/h 20.4 km/h 80% 0.0 mm 33.0 W/m2 OVC
15:34 13.0 °C 9.4 °C 1000.9 hPa SSE 29.6 km/h 29.6 km/h 79% 0.0 mm 26.0 W/m2 OVC
15:39 13.0 °C 9.4 °C 1000.9 hPa SSE 21.7 km/h 21.7 km/h 79% 0.0 mm 25.0 W/m2 FEW
15:44 12.9 °C 9.5 °C 1000.9 hPa ESE 20.4 km/h 20.4 km/h 80% 0.0 mm 23.0 W/m2 FEW
15:49 12.8 °C 9.4 °C 1000.9 hPa South 23.5 km/h 23.5 km/h 80% 0.0 mm 21.0 W/m2 FEW
15:54 12.7 °C 9.3 °C 1000.9 hPa SSW 18.5 km/h 18.5 km/h 80% 0.0 mm 19.0 W/m2 FEW
15:59 12.7 °C 9.3 °C 1000.6 hPa South 22.2 km/h 22.2 km/h 80% 0.0 mm 18.0 W/m2 FEW
16:04 12.6 °C 9.2 °C 1000.6 hPa SSE 24.1 km/h 24.1 km/h 80% 0.0 mm 16.0 W/m2 FEW
16:09 12.5 °C 9.3 °C 1000.6 hPa SSE 25.9 km/h 25.9 km/h 81% 0.0 mm 14.0 W/m2 FEW
16:14 12.4 °C 9.3 °C 1000.6 hPa SSE 25.9 km/h 25.9 km/h 81% 0.0 mm 12.0 W/m2 FEW
16:20 12.4 °C 9.2 °C 1000.2 hPa South 22.2 km/h 22.2 km/h 81% 0.0 mm 11.0 W/m2 FEW
16:25 12.3 °C 9.0 °C 1000.2 hPa SSE 22.2 km/h 22.2 km/h 80% 0.0 mm 9.0 W/m2 FEW
16:30 12.3 °C 9.0 °C 1000.2 hPa SE 20.1 km/h 20.1 km/h 80% 0.0 mm 7.0 W/m2 FEW
16:40 12.3 °C 9.0 °C 1000.2 hPa SSE 24.1 km/h 24.1 km/h 80% 0.0 mm 0.0 W/m2 OVC
16:45 12.3 °C 8.9 °C 1000.2 hPa SE 20.4 km/h 20.4 km/h 80% 0.0 mm 0.0 W/m2 OVC
16:50 12.2 °C 8.9 °C 1000.2 hPa SE 20.4 km/h 20.4 km/h 80% 0.0 mm 0.0 W/m2 OVC
17:00 12.2 °C 8.8 °C 999.9 hPa SSE 20.4 km/h 20.4 km/h 80% 0.0 mm 0.0 W/m2 OVC
17:05 12.0 °C 8.8 °C 999.9 hPa SSE 23.5 km/h 23.5 km/h 81% 0.0 mm 0.0 W/m2 CLR
17:10 11.9 °C 8.8 °C 999.9 hPa South 18.3 km/h 18.3 km/h 81% 0.0 mm 0.0 W/m2 CLR
17:15 11.8 °C 8.8 °C 999.9 hPa South 23.5 km/h 23.5 km/h 82% 0.0 mm 0.0 W/m2 CLR
17:20 11.8 °C 8.8 °C 999.9 hPa South 23.5 km/h 23.5 km/h 82% 0.0 mm 0.0 W/m2 CLR
17:26 11.8 °C 8.8 °C 999.9 hPa SE 23.5 km/h 23.5 km/h 82% 0.0 mm 0.0 W/m2 CLR
17:31 11.7 °C 8.7 °C 999.9 hPa ESE 22.2 km/h 22.2 km/h 82% 0.0 mm 0.0 W/m2 CLR
17:36 11.7 °C 8.7 °C 999.9 hPa SSE 18.5 km/h 18.5 km/h 82% 0.0 mm 0.0 W/m2 CLR
17:46 11.6 °C 8.4 °C 999.9 hPa SSW 22.2 km/h 22.2 km/h 81% 0.0 mm 0.0 W/m2 CLR
17:51 11.6 °C 8.4 °C 999.5 hPa SSW 26.7 km/h 26.7 km/h 81% 0.0 mm 0.0 W/m2 CLR
18:01 11.6 °C 8.4 °C 999.5 hPa South 23.5 km/h 23.5 km/h 81% 0.0 mm 0.0 W/m2 CLR
18:06 11.5 °C 8.3 °C 999.5 hPa South 16.7 km/h 16.7 km/h 81% 0.0 mm 0.0 W/m2 CLR
18:11 11.4 °C 8.3 °C 999.5 hPa SSE 30.1 km/h 30.1 km/h 81% 0.0 mm 0.0 W/m2 CLR
18:16 11.4 °C 8.3 °C 999.5 hPa South 26.7 km/h 26.7 km/h 81% 0.0 mm 0.0 W/m2 CLR
18:32 11.3 °C 8.1 °C 999.2 hPa South 25.9 km/h 25.9 km/h 81% 0.0 mm 0.0 W/m2 CLR
18:42 11.2 °C 8.1 °C 999.2 hPa South 25.1 km/h 25.1 km/h 81% 0.0 mm 0.0 W/m2 CLR
18:52 11.2 °C 8.0 °C 999.2 hPa SSE 25.1 km/h 25.1 km/h 81% 0.0 mm 0.0 W/m2 CLR
18:57 11.1 °C 7.9 °C 999.2 hPa SSE 13.4 km/h 13.4 km/h 81% 0.0 mm 0.0 W/m2 CLR
19:02 11.1 °C 7.7 °C 999.2 hPa South 18.3 km/h 18.3 km/h 80% 0.0 mm 0.0 W/m2 CLR
19:12 11.0 °C 7.7 °C 999.2 hPa South 18.5 km/h 18.5 km/h 80% 0.0 mm 0.0 W/m2 CLR
19:17 10.9 °C 7.4 °C 998.9 hPa South 28.5 km/h 28.5 km/h 79% 0.0 mm 0.0 W/m2 CLR
19:27 10.9 °C 7.3 °C 998.9 hPa SE 22.2 km/h 22.2 km/h 78% 0.0 mm 0.0 W/m2 CLR
19:33 10.9 °C 7.3 °C 998.9 hPa South 25.9 km/h 25.9 km/h 78% 0.0 mm 0.0 W/m2 CLR
19:44 10.9 °C 7.1 °C 998.5 hPa South 24.1 km/h 24.1 km/h 77% 0.0 mm 0.0 W/m2 CLR
19:49 10.9 °C 7.0 °C 998.5 hPa South 24.1 km/h 24.1 km/h 77% 0.0 mm 0.0 W/m2 CLR
19:54 10.9 °C 7.0 °C 998.5 hPa SSE 25.9 km/h 25.9 km/h 77% 0.0 mm 0.0 W/m2 CLR
20:04 10.8 °C 6.9 °C 998.5 hPa South 23.5 km/h 23.5 km/h 77% 0.0 mm 0.0 W/m2 CLR
20:09 10.8 °C 6.9 °C 998.5 hPa South 20.4 km/h 20.4 km/h 77% 0.0 mm 0.0 W/m2 CLR
20:14 10.7 °C 6.8 °C 998.2 hPa SE 22.2 km/h 22.2 km/h 77% 0.0 mm 0.0 W/m2 CLR
20:24 10.7 °C 6.8 °C 998.2 hPa SSE 24.1 km/h 24.1 km/h 77% 0.0 mm 0.0 W/m2 CLR
20:34 10.6 °C 6.7 °C 998.2 hPa South 22.2 km/h 22.2 km/h 77% 0.0 mm 0.0 W/m2 CLR
20:39 10.7 °C 6.8 °C 997.9 hPa SSE 35.2 km/h 35.2 km/h 77% 0.0 mm 0.0 W/m2 CLR
20:44 10.7 °C 6.6 °C 997.9 hPa SSE 28.5 km/h 28.5 km/h 76% 0.0 mm 0.0 W/m2 CLR
20:49 10.6 °C 6.7 °C 997.9 hPa SW 26.7 km/h 26.7 km/h 77% 0.0 mm 0.0 W/m2 CLR
21:00 10.6 °C 6.5 °C 997.9 hPa SSE 20.4 km/h 20.4 km/h 76% 0.0 mm 0.0 W/m2 CLR
21:05 10.6 °C 6.5 °C 997.9 hPa SSE 35.2 km/h 35.2 km/h 76% 0.0 mm 0.0 W/m2 CLR
21:10 10.6 °C 6.5 °C 997.9 hPa South 18.5 km/h 18.5 km/h 76% 0.0 mm 0.0 W/m2 CLR
21:15 10.5 °C 6.4 °C 997.9 hPa SE 22.2 km/h 22.2 km/h 76% 0.0 mm 0.0 W/m2 CLR
21:20 10.5 °C 6.4 °C 997.9 hPa SSE 22.2 km/h 22.2 km/h 76% 0.0 mm 0.0 W/m2 CLR
Juneau County Weather
Compliments of Weather Underground - 3 mb